sensor_id;sensor_type;location;lat;lon;timestamp;temperature;humidity
52267;DHT22;38223;50.940;4.034;2023-03-12T00:01:40;7.40;99.90
52267;DHT22;38223;50.940;4.034;2023-03-12T00:04:17;7.40;99.90
52267;DHT22;38223;50.940;4.034;2023-03-12T00:06:45;7.30;99.90
52267;DHT22;38223;50.940;4.034;2023-03-12T00:09:19;7.20;99.90
52267;DHT22;38223;50.940;4.034;2023-03-12T00:11:49;7.20;99.90
52267;DHT22;38223;50.940;4.034;2023-03-12T00:14:24;7.20;99.90
52267;DHT22;38223;50.940;4.034;2023-03-12T00:16:54;7.20;99.90
52267;DHT22;38223;50.940;4.034;2023-03-12T00:19:29;7.10;99.90
52267;DHT22;38223;50.940;4.034;2023-03-12T00:22:02;7.10;99.90
52267;DHT22;38223;50.940;4.034;2023-03-12T00:24:32;7.00;99.90
52267;DHT22;38223;50.940;4.034;2023-03-12T00:27:05;7.10;99.90
52267;DHT22;38223;50.940;4.034;2023-03-12T00:29:36;7.00;99.90
52267;DHT22;38223;50.940;4.034;2023-03-12T00:32:08;6.90;99.90
52267;DHT22;38223;50.940;4.034;2023-03-12T00:34:40;6.90;99.90
52267;DHT22;38223;50.940;4.034;2023-03-12T00:37:09;6.80;99.90
52267;DHT22;38223;50.940;4.034;2023-03-12T00:39:43;6.80;99.90
52267;DHT22;38223;50.940;4.034;2023-03-12T00:42:13;6.70;99.90
52267;DHT22;38223;50.940;4.034;2023-03-12T00:44:50;6.70;99.90
52267;DHT22;38223;50.940;4.034;2023-03-12T00:47:21;6.70;99.90
52267;DHT22;38223;50.940;4.034;2023-03-12T00:49:55;6.70;99.90
52267;DHT22;38223;50.940;4.034;2023-03-12T00:52:30;6.70;99.90
52267;DHT22;38223;50.940;4.034;2023-03-12T00:54:59;6.70;99.90
52267;DHT22;38223;50.940;4.034;2023-03-12T01:00:24;6.70;99.90
52267;DHT22;38223;50.940;4.034;2023-03-12T01:02:52;6.70;99.90
52267;DHT22;38223;50.940;4.034;2023-03-12T01:05:25;6.70;99.90
52267;DHT22;38223;50.940;4.034;2023-03-12T01:07:54;6.60;99.90
52267;DHT22;38223;50.940;4.034;2023-03-12T01:10:23;6.60;99.90
52267;DHT22;38223;50.940;4.034;2023-03-12T01:12:53;6.60;99.90
52267;DHT22;38223;50.940;4.034;2023-03-12T01:15:25;6.60;99.90
52267;DHT22;38223;50.940;4.034;2023-03-12T01:17:57;6.50;99.90
52267;DHT22;38223;50.940;4.034;2023-03-12T01:20:28;6.50;99.90
52267;DHT22;38223;50.940;4.034;2023-03-12T01:23:16;6.40;99.90
52267;DHT22;38223;50.940;4.034;2023-03-12T01:25:50;6.30;99.90
52267;DHT22;38223;50.940;4.034;2023-03-12T01:28:20;6.40;99.90
52267;DHT22;38223;50.940;4.034;2023-03-12T01:30:54;6.30;99.90
52267;DHT22;38223;50.940;4.034;2023-03-12T01:33:23;6.20;99.90
52267;DHT22;38223;50.940;4.034;2023-03-12T01:35:57;6.20;99.90
52267;DHT22;38223;50.940;4.034;2023-03-12T01:38:26;6.20;99.90
52267;DHT22;38223;50.940;4.034;2023-03-12T01:40:55;6.10;99.90
52267;DHT22;38223;50.940;4.034;2023-03-12T01:43:26;6.10;99.90
52267;DHT22;38223;50.940;4.034;2023-03-12T01:46:27;6.10;99.90
52267;DHT22;38223;50.940;4.034;2023-03-12T01:52:05;6.10;99.90
52267;DHT22;38223;50.940;4.034;2023-03-12T01:55:00;6.00;99.90
52267;DHT22;38223;50.940;4.034;2023-03-12T01:57:51;6.00;99.90
52267;DHT22;38223;50.940;4.034;2023-03-12T02:00:24;6.10;99.90
52267;DHT22;38223;50.940;4.034;2023-03-12T02:02:58;6.10;99.90
52267;DHT22;38223;50.940;4.034;2023-03-12T02:05:55;6.10;99.90
52267;DHT22;38223;50.940;4.034;2023-03-12T02:08:23;6.10;99.90
52267;DHT22;38223;50.940;4.034;2023-03-12T02:10:58;6.20;99.90
52267;DHT22;38223;50.940;4.034;2023-03-12T02:13:27;6.20;99.90
52267;DHT22;38223;50.940;4.034;2023-03-12T02:15:57;6.20;99.90
52267;DHT22;38223;50.940;4.034;2023-03-12T02:18:30;6.30;99.90
52267;DHT22;38223;50.940;4.034;2023-03-12T02:21:12;6.30;99.90
52267;DHT22;38223;50.940;4.034;2023-03-12T02:24:06;6.30;99.90
52267;DHT22;38223;50.940;4.034;2023-03-12T02:26:38;6.20;99.90
52267;DHT22;38223;50.940;4.034;2023-03-12T02:29:10;6.00;99.90
52267;DHT22;38223;50.940;4.034;2023-03-12T02:31:49;6.00;99.90
52267;DHT22;38223;50.940;4.034;2023-03-12T02:34:21;5.90;99.90
52267;DHT22;38223;50.940;4.034;2023-03-12T02:36:54;5.80;99.90
52267;DHT22;38223;50.940;4.034;2023-03-12T02:39:29;5.70;99.90
52267;DHT22;38223;50.940;4.034;2023-03-12T02:42:03;5.80;99.90
52267;DHT22;38223;50.940;4.034;2023-03-12T02:44:37;5.80;99.90
52267;DHT22;38223;50.940;4.034;2023-03-12T02:47:09;5.90;99.90
52267;DHT22;38223;50.940;4.034;2023-03-12T02:49:42;6.10;99.90
52267;DHT22;38223;50.940;4.034;2023-03-12T02:52:19;6.30;99.90
52267;DHT22;38223;50.940;4.034;2023-03-12T02:54:54;6.30;99.90
52267;DHT22;38223;50.940;4.034;2023-03-12T02:57:23;6.30;99.90
52267;DHT22;38223;50.940;4.034;2023-03-12T02:59:57;6.20;99.90
52267;DHT22;38223;50.940;4.034;2023-03-12T03:02:30;6.10;99.90
52267;DHT22;38223;50.940;4.034;2023-03-12T03:05:04;6.10;99.90
52267;DHT22;38223;50.940;4.034;2023-03-12T03:07:36;6.10;99.90
52267;DHT22;38223;50.940;4.034;2023-03-12T03:10:06;6.10;99.90
52267;DHT22;38223;50.940;4.034;2023-03-12T03:12:39;6.10;99.90
52267;DHT22;38223;50.940;4.034;2023-03-12T03:15:16;6.10;99.90
52267;DHT22;38223;50.940;4.034;2023-03-12T03:17:54;6.00;99.90
52267;DHT22;38223;50.940;4.034;2023-03-12T03:20:23;5.90;99.90
52267;DHT22;38223;50.940;4.034;2023-03-12T03:22:53;5.90;99.90
52267;DHT22;38223;50.940;4.034;2023-03-12T03:25:24;5.80;99.90
52267;DHT22;38223;50.940;4.034;2023-03-12T03:27:59;5.90;99.90
52267;DHT22;38223;50.940;4.034;2023-03-12T03:30:32;5.90;99.90
52267;DHT22;38223;50.940;4.034;2023-03-12T03:33:05;5.90;99.90
52267;DHT22;38223;50.940;4.034;2023-03-12T03:35:38;6.10;99.90
52267;DHT22;38223;50.940;4.034;2023-03-12T03:38:08;6.10;99.90
52267;DHT22;38223;50.940;4.034;2023-03-12T03:40:43;6.10;99.90
52267;DHT22;38223;50.940;4.034;2023-03-12T03:43:13;6.10;99.90
52267;DHT22;38223;50.940;4.034;2023-03-12T03:45:46;6.10;99.90
52267;DHT22;38223;50.940;4.034;2023-03-12T03:48:15;6.10;99.90
52267;DHT22;38223;50.940;4.034;2023-03-12T03:50:47;6.10;99.90
52267;DHT22;38223;50.940;4.034;2023-03-12T03:53:17;6.10;99.90
52267;DHT22;38223;50.940;4.034;2023-03-12T03:55:51;6.10;99.90
52267;DHT22;38223;50.940;4.034;2023-03-12T03:58:22;6.20;99.90
52267;DHT22;38223;50.940;4.034;2023-03-12T04:00:54;6.10;99.90
52267;DHT22;38223;50.940;4.034;2023-03-12T04:03:26;6.10;99.90
52267;DHT22;38223;50.940;4.034;2023-03-12T04:06:00;6.00;99.90
52267;DHT22;38223;50.940;4.034;2023-03-12T04:08:32;6.10;99.90
52267;DHT22;38223;50.940;4.034;2023-03-12T04:11:09;6.20;99.90
52267;DHT22;38223;50.940;4.034;2023-03-12T04:13:40;6.20;99.90
52267;DHT22;38223;50.940;4.034;2023-03-12T04:16:14;6.20;99.90
52267;DHT22;38223;50.940;4.034;2023-03-12T04:18:49;6.10;99.90
52267;DHT22;38223;50.940;4.034;2023-03-12T04:21:20;6.10;99.90
52267;DHT22;38223;50.940;4.034;2023-03-12T04:23:58;6.00;99.90
52267;DHT22;38223;50.940;4.034;2023-03-12T04:26:29;5.90;99.90
52267;DHT22;38223;50.940;4.034;2023-03-12T04:29:02;5.90;99.90
52267;DHT22;38223;50.940;4.034;2023-03-12T04:31:30;5.90;99.90
52267;DHT22;38223;50.940;4.034;2023-03-12T04:34:01;5.90;99.90
52267;DHT22;38223;50.940;4.034;2023-03-12T04:36:31;5.90;99.90
52267;DHT22;38223;50.940;4.034;2023-03-12T04:39:07;5.80;99.90
52267;DHT22;38223;50.940;4.034;2023-03-12T04:41:36;5.80;99.90
52267;DHT22;38223;50.940;4.034;2023-03-12T04:44:08;5.80;99.90
52267;DHT22;38223;50.940;4.034;2023-03-12T04:46:38;5.90;99.90
52267;DHT22;38223;50.940;4.034;2023-03-12T04:49:12;5.90;99.90
52267;DHT22;38223;50.940;4.034;2023-03-12T04:51:43;5.90;99.90
52267;DHT22;38223;50.940;4.034;2023-03-12T04:54:15;5.90;99.90
52267;DHT22;38223;50.940;4.034;2023-03-12T04:56:47;5.90;99.90
52267;DHT22;38223;50.940;4.034;2023-03-12T04:59:17;5.90;99.90
52267;DHT22;38223;50.940;4.034;2023-03-12T05:01:53;6.00;99.90
52267;DHT22;38223;50.940;4.034;2023-03-12T05:04:23;6.00;99.90
52267;DHT22;38223;50.940;4.034;2023-03-12T05:07:01;6.10;99.90
52267;DHT22;38223;50.940;4.034;2023-03-12T05:09:30;6.00;99.90
52267;DHT22;38223;50.940;4.034;2023-03-12T05:12:04;6.10;99.90
52267;DHT22;38223;50.940;4.034;2023-03-12T05:14:34;6.10;99.90
52267;DHT22;38223;50.940;4.034;2023-03-12T05:17:05;6.10;99.90
52267;DHT22;38223;50.940;4.034;2023-03-12T05:19:37;6.20;99.90
52267;DHT22;38223;50.940;4.034;2023-03-12T05:22:08;6.20;99.90
52267;DHT22;38223;50.940;4.034;2023-03-12T05:24:41;6.30;99.90
52267;DHT22;38223;50.940;4.034;2023-03-12T05:27:15;6.30;99.90
52267;DHT22;38223;50.940;4.034;2023-03-12T05:29:48;6.30;99.90
52267;DHT22;38223;50.940;4.034;2023-03-12T05:32:18;6.30;99.90
52267;DHT22;38223;50.940;4.034;2023-03-12T05:34:52;6.30;99.90
52267;DHT22;38223;50.940;4.034;2023-03-12T05:37:23;6.30;99.90
52267;DHT22;38223;50.940;4.034;2023-03-12T05:39:55;6.40;99.90
52267;DHT22;38223;50.940;4.034;2023-03-12T05:42:29;6.30;99.90
52267;DHT22;38223;50.940;4.034;2023-03-12T05:45:02;6.40;99.90
52267;DHT22;38223;50.940;4.034;2023-03-12T05:47:35;6.30;99.90
52267;DHT22;38223;50.940;4.034;2023-03-12T05:50:07;6.40;99.90
52267;DHT22;38223;50.940;4.034;2023-03-12T05:52:38;6.50;99.90
52267;DHT22;38223;50.940;4.034;2023-03-12T05:55:09;6.50;99.90
52267;DHT22;38223;50.940;4.034;2023-03-12T05:57:43;6.50;99.90
52267;DHT22;38223;50.940;4.034;2023-03-12T06:00:16;6.50;99.90
52267;DHT22;38223;50.940;4.034;2023-03-12T06:02:48;6.50;99.90
52267;DHT22;38223;50.940;4.034;2023-03-12T06:05:20;6.60;99.90
52267;DHT22;38223;50.940;4.034;2023-03-12T06:07:50;6.70;99.90
52267;DHT22;38223;50.940;4.034;2023-03-12T06:10:23;6.80;99.90
52267;DHT22;38223;50.940;4.034;2023-03-12T06:12:55;6.90;99.90
52267;DHT22;38223;50.940;4.034;2023-03-12T06:15:32;6.90;99.90
52267;DHT22;38223;50.940;4.034;2023-03-12T06:18:05;6.90;99.90
52267;DHT22;38223;50.940;4.034;2023-03-12T06:20:38;6.90;99.90
52267;DHT22;38223;50.940;4.034;2023-03-12T06:23:09;7.00;99.90
52267;DHT22;38223;50.940;4.034;2023-03-12T06:25:43;7.20;99.90
52267;DHT22;38223;50.940;4.034;2023-03-12T06:28:14;7.40;99.90
52267;DHT22;38223;50.940;4.034;2023-03-12T06:30:54;7.20;99.90
52267;DHT22;38223;50.940;4.034;2023-03-12T06:33:27;7.30;99.90
52267;DHT22;38223;50.940;4.034;2023-03-12T06:36:03;7.40;99.90
52267;DHT22;38223;50.940;4.034;2023-03-12T06:38:33;7.50;99.90
52267;DHT22;38223;50.940;4.034;2023-03-12T06:41:09;7.40;99.90
52267;DHT22;38223;50.940;4.034;2023-03-12T06:43:43;7.40;99.90
52267;DHT22;38223;50.940;4.034;2023-03-12T06:46:16;7.60;99.90
52267;DHT22;38223;50.940;4.034;2023-03-12T06:48:48;7.60;99.90
52267;DHT22;38223;50.940;4.034;2023-03-12T06:51:25;7.70;99.90
52267;DHT22;38223;50.940;4.034;2023-03-12T06:53:52;7.90;99.90
52267;DHT22;38223;50.940;4.034;2023-03-12T06:56:23;8.00;99.90
52267;DHT22;38223;50.940;4.034;2023-03-12T06:58:51;8.10;99.90
52267;DHT22;38223;50.940;4.034;2023-03-12T07:01:19;8.10;99.90
52267;DHT22;38223;50.940;4.034;2023-03-12T07:03:46;8.10;99.90
52267;DHT22;38223;50.940;4.034;2023-03-12T07:06:19;8.20;99.90
52267;DHT22;38223;50.940;4.034;2023-03-12T07:08:53;8.40;99.90
52267;DHT22;38223;50.940;4.034;2023-03-12T07:11:23;8.50;99.90
52267;DHT22;38223;50.940;4.034;2023-03-12T07:13:53;8.40;99.90
52267;DHT22;38223;50.940;4.034;2023-03-12T07:16:24;8.40;99.90
52267;DHT22;38223;50.940;4.034;2023-03-12T07:18:55;8.60;99.90
52267;DHT22;38223;50.940;4.034;2023-03-12T07:21:27;8.50;99.90
52267;DHT22;38223;50.940;4.034;2023-03-12T07:24:01;8.60;99.90
52267;DHT22;38223;50.940;4.034;2023-03-12T07:26:34;8.60;99.90
52267;DHT22;38223;50.940;4.034;2023-03-12T07:29:05;8.70;99.90
52267;DHT22;38223;50.940;4.034;2023-03-12T07:31:40;8.70;99.90
52267;DHT22;38223;50.940;4.034;2023-03-12T07:34:14;8.90;99.90
52267;DHT22;38223;50.940;4.034;2023-03-12T07:36:44;9.00;99.90
52267;DHT22;38223;50.940;4.034;2023-03-12T07:39:14;9.20;99.90
52267;DHT22;38223;50.940;4.034;2023-03-12T07:41:44;9.30;99.90
52267;DHT22;38223;50.940;4.034;2023-03-12T07:44:15;9.40;99.90
52267;DHT22;38223;50.940;4.034;2023-03-12T07:46:45;9.30;99.90
52267;DHT22;38223;50.940;4.034;2023-03-12T07:49:21;9.50;99.90
52267;DHT22;38223;50.940;4.034;2023-03-12T07:51:52;9.50;99.90
52267;DHT22;38223;50.940;4.034;2023-03-12T07:54:22;9.60;99.90
52267;DHT22;38223;50.940;4.034;2023-03-12T07:56:52;9.50;99.90
52267;DHT22;38223;50.940;4.034;2023-03-12T07:59:21;9.60;99.90
52267;DHT22;38223;50.940;4.034;2023-03-12T08:01:54;9.60;99.90
52267;DHT22;38223;50.940;4.034;2023-03-12T08:04:23;9.70;99.90
52267;DHT22;38223;50.940;4.034;2023-03-12T08:06:56;9.70;99.90
52267;DHT22;38223;50.940;4.034;2023-03-12T08:09:27;9.60;99.90
52267;DHT22;38223;50.940;4.034;2023-03-12T08:12:02;9.70;99.90
52267;DHT22;38223;50.940;4.034;2023-03-12T08:17:06;9.80;99.90
52267;DHT22;38223;50.940;4.034;2023-03-12T08:19:35;10.00;99.90
52267;DHT22;38223;50.940;4.034;2023-03-12T08:22:11;10.00;99.90
52267;DHT22;38223;50.940;4.034;2023-03-12T08:24:43;10.10;99.90
52267;DHT22;38223;50.940;4.034;2023-03-12T08:27:15;10.10;99.90
52267;DHT22;38223;50.940;4.034;2023-03-12T08:29:49;10.00;99.90
52267;DHT22;38223;50.940;4.034;2023-03-12T08:32:18;10.10;99.90
52267;DHT22;38223;50.940;4.034;2023-03-12T08:34:54;10.20;99.90
52267;DHT22;38223;50.940;4.034;2023-03-12T08:37:23;10.40;99.90
52267;DHT22;38223;50.940;4.034;2023-03-12T08:39:56;10.50;99.90
52267;DHT22;38223;50.940;4.034;2023-03-12T08:42:30;10.60;99.90
52267;DHT22;38223;50.940;4.034;2023-03-12T08:45:01;10.60;99.90
52267;DHT22;38223;50.940;4.034;2023-03-12T08:47:33;10.60;99.90
52267;DHT22;38223;50.940;4.034;2023-03-12T08:50:05;10.60;99.90
52267;DHT22;38223;50.940;4.034;2023-03-12T08:52:35;10.70;99.90
52267;DHT22;38223;50.940;4.034;2023-03-12T08:55:10;10.70;99.90
52267;DHT22;38223;50.940;4.034;2023-03-12T08:57:45;10.80;99.90
52267;DHT22;38223;50.940;4.034;2023-03-12T09:00:16;10.80;99.90
52267;DHT22;38223;50.940;4.034;2023-03-12T09:02:48;10.90;99.90
52267;DHT22;38223;50.940;4.034;2023-03-12T09:05:22;10.80;99.90
52267;DHT22;38223;50.940;4.034;2023-03-12T09:07:54;10.90;99.90
52267;DHT22;38223;50.940;4.034;2023-03-12T09:10:25;11.10;99.90
52267;DHT22;38223;50.940;4.034;2023-03-12T09:12:55;11.20;99.90
52267;DHT22;38223;50.940;4.034;2023-03-12T09:15:23;11.30;99.90
52267;DHT22;38223;50.940;4.034;2023-03-12T09:17:54;11.50;99.90
52267;DHT22;38223;50.940;4.034;2023-03-12T09:20:26;11.60;99.90
52267;DHT22;38223;50.940;4.034;2023-03-12T09:23:00;11.50;99.90
52267;DHT22;38223;50.940;4.034;2023-03-12T09:25:32;11.50;99.90
52267;DHT22;38223;50.940;4.034;2023-03-12T09:28:02;11.50;99.90
52267;DHT22;38223;50.940;4.034;2023-03-12T09:30:37;11.60;99.90
52267;DHT22;38223;50.940;4.034;2023-03-12T09:33:08;11.50;99.90
52267;DHT22;38223;50.940;4.034;2023-03-12T09:35:38;11.50;99.90
52267;DHT22;38223;50.940;4.034;2023-03-12T09:38:07;11.50;99.90
52267;DHT22;38223;50.940;4.034;2023-03-12T09:40:42;11.60;99.90
52267;DHT22;38223;50.940;4.034;2023-03-12T09:43:16;11.70;99.90
52267;DHT22;38223;50.940;4.034;2023-03-12T09:45:44;11.70;99.90
52267;DHT22;38223;50.940;4.034;2023-03-12T09:48:26;11.70;99.90
52267;DHT22;38223;50.940;4.034;2023-03-12T09:50:51;11.60;99.90
52267;DHT22;38223;50.940;4.034;2023-03-12T09:53:30;11.60;99.90
52267;DHT22;38223;50.940;4.034;2023-03-12T09:56:02;11.70;99.90
52267;DHT22;38223;50.940;4.034;2023-03-12T09:58:34;11.80;99.90
52267;DHT22;38223;50.940;4.034;2023-03-12T10:04:18;11.80;99.90
52267;DHT22;38223;50.940;4.034;2023-03-12T10:07:03;11.90;99.90
52267;DHT22;38223;50.940;4.034;2023-03-12T10:21:16;12.10;99.90
52267;DHT22;38223;50.940;4.034;2023-03-12T10:26:32;12.30;99.90
52267;DHT22;38223;50.940;4.034;2023-03-12T10:29:48;12.40;99.90
52267;DHT22;38223;50.940;4.034;2023-03-12T10:34:44;12.40;99.90
52267;DHT22;38223;50.940;4.034;2023-03-12T10:39:54;12.60;99.90
52267;DHT22;38223;50.940;4.034;2023-03-12T10:42:27;12.60;99.90
52267;DHT22;38223;50.940;4.034;2023-03-12T10:45:13;12.60;99.90
52267;DHT22;38223;50.940;4.034;2023-03-12T10:48:02;12.70;99.90
52267;DHT22;38223;50.940;4.034;2023-03-12T10:50:59;12.70;99.90
52267;DHT22;38223;50.940;4.034;2023-03-12T10:53:28;12.70;99.90
52267;DHT22;38223;50.940;4.034;2023-03-12T10:56:15;12.70;99.90
52267;DHT22;38223;50.940;4.034;2023-03-12T10:58:57;12.70;99.90
52267;DHT22;38223;50.940;4.034;2023-03-12T11:01:45;12.80;99.90
52267;DHT22;38223;50.940;4.034;2023-03-12T11:04:34;12.90;99.90
52267;DHT22;38223;50.940;4.034;2023-03-12T11:12:49;13.00;99.90
52267;DHT22;38223;50.940;4.034;2023-03-12T11:18:36;13.00;99.90
52267;DHT22;38223;50.940;4.034;2023-03-12T11:21:16;13.10;99.90
52267;DHT22;38223;50.940;4.034;2023-03-12T11:26:50;13.00;99.90
52267;DHT22;38223;50.940;4.034;2023-03-12T11:30:05;12.90;99.90
52267;DHT22;38223;50.940;4.034;2023-03-12T11:32:32;12.90;99.90
52267;DHT22;38223;50.940;4.034;2023-03-12T11:35:07;13.00;99.90
52267;DHT22;38223;50.940;4.034;2023-03-12T11:37:59;13.20;99.90
52267;DHT22;38223;50.940;4.034;2023-03-12T11:41:00;13.20;99.90
52267;DHT22;38223;50.940;4.034;2023-03-12T11:46:30;13.30;99.90
52267;DHT22;38223;50.940;4.034;2023-03-12T11:52:10;13.40;99.90
52267;DHT22;38223;50.940;4.034;2023-03-12T11:54:53;13.50;99.90
52267;DHT22;38223;50.940;4.034;2023-03-12T12:00:22;13.50;99.90
52267;DHT22;38223;50.940;4.034;2023-03-12T12:06:23;13.30;99.90
52267;DHT22;38223;50.940;4.034;2023-03-12T12:12:24;13.10;99.90
52267;DHT22;38223;50.940;4.034;2023-03-12T12:14:39;13.30;99.90
52267;DHT22;38223;50.940;4.034;2023-03-12T12:23:00;13.20;99.90
52267;DHT22;38223;50.940;4.034;2023-03-12T12:25:51;13.20;99.90
52267;DHT22;38223;50.940;4.034;2023-03-12T12:31:39;13.30;99.90
52267;DHT22;38223;50.940;4.034;2023-03-12T12:37:26;13.30;99.90
52267;DHT22;38223;50.940;4.034;2023-03-12T12:42:43;13.30;99.90
52267;DHT22;38223;50.940;4.034;2023-03-12T12:45:11;13.30;99.90
52267;DHT22;38223;50.940;4.034;2023-03-12T12:48:01;13.40;99.90
52267;DHT22;38223;50.940;4.034;2023-03-12T12:50:35;13.40;99.90
52267;DHT22;38223;50.940;4.034;2023-03-12T12:53:36;13.30;99.90
52267;DHT22;38223;50.940;4.034;2023-03-12T12:56:24;13.20;99.90
52267;DHT22;38223;50.940;4.034;2023-03-12T12:59:20;13.00;99.90
52267;DHT22;38223;50.940;4.034;2023-03-12T13:01:51;12.90;99.90
52267;DHT22;38223;50.940;4.034;2023-03-12T13:04:36;13.00;99.90
52267;DHT22;38223;50.940;4.034;2023-03-12T13:09:55;13.20;99.90
52267;DHT22;38223;50.940;4.034;2023-03-12T13:12:31;13.30;99.90
52267;DHT22;38223;50.940;4.034;2023-03-12T13:14:56;13.40;99.90
52267;DHT22;38223;50.940;4.034;2023-03-12T13:17:35;13.50;99.90
52267;DHT22;38223;50.940;4.034;2023-03-12T13:20:14;13.60;99.90
52267;DHT22;38223;50.940;4.034;2023-03-12T13:37:02;13.00;99.90
52267;DHT22;38223;50.940;4.034;2023-03-12T13:39:36;13.10;99.90
52267;DHT22;38223;50.940;4.034;2023-03-12T13:42:26;13.30;99.90
52267;DHT22;38223;50.940;4.034;2023-03-12T13:44:55;13.30;99.90
52267;DHT22;38223;50.940;4.034;2023-03-12T13:47:36;13.30;99.90
52267;DHT22;38223;50.940;4.034;2023-03-12T13:50:12;13.50;99.90
52267;DHT22;38223;50.940;4.034;2023-03-12T13:52:49;13.60;99.90
52267;DHT22;38223;50.940;4.034;2023-03-12T13:55:26;13.50;99.90
52267;DHT22;38223;50.940;4.034;2023-03-12T13:58:07;13.50;99.90
52267;DHT22;38223;50.940;4.034;2023-03-12T14:00:52;13.60;99.90
52267;DHT22;38223;50.940;4.034;2023-03-12T14:06:11;13.60;99.90
52267;DHT22;38223;50.940;4.034;2023-03-12T14:08:48;13.50;99.90
52267;DHT22;38223;50.940;4.034;2023-03-12T14:11:28;13.50;99.90
52267;DHT22;38223;50.940;4.034;2023-03-12T14:14:20;13.50;99.90
52267;DHT22;38223;50.940;4.034;2023-03-12T14:16:54;13.40;99.90
52267;DHT22;38223;50.940;4.034;2023-03-12T14:19:34;13.40;99.90
52267;DHT22;38223;50.940;4.034;2023-03-12T14:22:04;13.30;99.90
52267;DHT22;38223;50.940;4.034;2023-03-12T14:24:47;13.20;99.90
52267;DHT22;38223;50.940;4.034;2023-03-12T14:27:14;13.20;99.90
52267;DHT22;38223;50.940;4.034;2023-03-12T14:30:12;13.20;99.90
52267;DHT22;38223;50.940;4.034;2023-03-12T14:32:32;13.20;99.90
52267;DHT22;38223;50.940;4.034;2023-03-12T14:38:23;13.30;99.90
52267;DHT22;38223;50.940;4.034;2023-03-12T14:43:35;13.40;99.90
52267;DHT22;38223;50.940;4.034;2023-03-12T14:46:11;13.40;99.90
52267;DHT22;38223;50.940;4.034;2023-03-12T14:48:35;13.50;99.90
52267;DHT22;38223;50.940;4.034;2023-03-12T14:51:06;13.50;99.90
52267;DHT22;38223;50.940;4.034;2023-03-12T14:53:43;13.30;99.90
52267;DHT22;38223;50.940;4.034;2023-03-12T14:58:52;13.00;99.90
52267;DHT22;38223;50.940;4.034;2023-03-12T15:01:30;12.90;99.90
52267;DHT22;38223;50.940;4.034;2023-03-12T15:04:02;12.90;99.90
52267;DHT22;38223;50.940;4.034;2023-03-12T15:06:48;13.00;99.90
52267;DHT22;38223;50.940;4.034;2023-03-12T15:09:26;13.10;99.90
52267;DHT22;38223;50.940;4.034;2023-03-12T15:11:59;13.10;99.90
52267;DHT22;38223;50.940;4.034;2023-03-12T15:14:41;13.10;99.90
52267;DHT22;38223;50.940;4.034;2023-03-12T15:17:20;13.30;99.90
52267;DHT22;38223;50.940;4.034;2023-03-12T15:19:47;13.30;99.90
52267;DHT22;38223;50.940;4.034;2023-03-12T15:22:18;13.30;99.90
52267;DHT22;38223;50.940;4.034;2023-03-12T15:24:52;13.40;99.90
52267;DHT22;38223;50.940;4.034;2023-03-12T15:30:21;13.40;99.90
52267;DHT22;38223;50.940;4.034;2023-03-12T15:32:35;13.40;99.90
52267;DHT22;38223;50.940;4.034;2023-03-12T15:35:12;13.40;99.90
52267;DHT22;38223;50.940;4.034;2023-03-12T15:37:48;13.40;99.90
52267;DHT22;38223;50.940;4.034;2023-03-12T15:40:21;13.40;99.90
52267;DHT22;38223;50.940;4.034;2023-03-12T15:42:50;13.40;99.90
52267;DHT22;38223;50.940;4.034;2023-03-12T15:45:28;13.50;99.90
52267;DHT22;38223;50.940;4.034;2023-03-12T15:47:53;13.40;99.90
52267;DHT22;38223;50.940;4.034;2023-03-12T15:50:28;13.30;99.90
52267;DHT22;38223;50.940;4.034;2023-03-12T15:58:32;13.10;99.90
52267;DHT22;38223;50.940;4.034;2023-03-12T16:03:42;12.90;99.90
52267;DHT22;38223;50.940;4.034;2023-03-12T16:06:24;12.90;99.90
52267;DHT22;38223;50.940;4.034;2023-03-12T16:08:57;12.90;99.90
52267;DHT22;38223;50.940;4.034;2023-03-12T16:11:31;12.90;99.90
52267;DHT22;38223;50.940;4.034;2023-03-12T16:14:15;12.90;99.90
52267;DHT22;38223;50.940;4.034;2023-03-12T16:16:45;12.90;99.90
52267;DHT22;38223;50.940;4.034;2023-03-12T16:19:21;12.90;99.90
52267;DHT22;38223;50.940;4.034;2023-03-12T16:21:54;12.90;99.90
52267;DHT22;38223;50.940;4.034;2023-03-12T16:24:27;12.90;99.90
52267;DHT22;38223;50.940;4.034;2023-03-12T16:27:01;12.90;99.90
52267;DHT22;38223;50.940;4.034;2023-03-12T16:29:38;12.90;99.90
52267;DHT22;38223;50.940;4.034;2023-03-12T16:32:14;13.00;99.90
52267;DHT22;38223;50.940;4.034;2023-03-12T16:34:43;13.10;99.90
52267;DHT22;38223;50.940;4.034;2023-03-12T16:37:15;13.20;99.90
52267;DHT22;38223;50.940;4.034;2023-03-12T16:39:42;13.10;99.90
52267;DHT22;38223;50.940;4.034;2023-03-12T16:42:15;13.00;99.90
52267;DHT22;38223;50.940;4.034;2023-03-12T16:44:44;13.00;99.90
52267;DHT22;38223;50.940;4.034;2023-03-12T16:47:20;12.90;99.90
52267;DHT22;38223;50.940;4.034;2023-03-12T16:49:48;12.90;99.90
52267;DHT22;38223;50.940;4.034;2023-03-12T16:52:19;13.00;99.90
52267;DHT22;38223;50.940;4.034;2023-03-12T16:54:50;13.00;99.90
52267;DHT22;38223;50.940;4.034;2023-03-12T17:00:02;13.20;99.90
52267;DHT22;38223;50.940;4.034;2023-03-12T17:02:32;13.10;99.90
52267;DHT22;38223;50.940;4.034;2023-03-12T17:05:02;13.20;99.90
52267;DHT22;38223;50.940;4.034;2023-03-12T17:07:30;13.00;99.90
52267;DHT22;38223;50.940;4.034;2023-03-12T17:09:58;13.10;99.90
52267;DHT22;38223;50.940;4.034;2023-03-12T17:12:33;13.00;99.90
52267;DHT22;38223;50.940;4.034;2023-03-12T17:15:07;12.90;99.90
52267;DHT22;38223;50.940;4.034;2023-03-12T17:17:37;13.00;99.90
52267;DHT22;38223;50.940;4.034;2023-03-12T17:20:09;13.00;99.90
52267;DHT22;38223;50.940;4.034;2023-03-12T17:22:39;13.10;99.90
52267;DHT22;38223;50.940;4.034;2023-03-12T17:25:27;13.10;99.90
52267;DHT22;38223;50.940;4.034;2023-03-12T17:27:40;13.00;99.90
52267;DHT22;38223;50.940;4.034;2023-03-12T17:30:09;13.00;99.90
52267;DHT22;38223;50.940;4.034;2023-03-12T17:32:37;13.00;99.90
52267;DHT22;38223;50.940;4.034;2023-03-12T17:35:05;13.00;99.90
52267;DHT22;38223;50.940;4.034;2023-03-12T17:37:39;13.00;99.90
52267;DHT22;38223;50.940;4.034;2023-03-12T17:40:10;13.10;99.90
52267;DHT22;38223;50.940;4.034;2023-03-12T17:42:41;13.10;99.90
52267;DHT22;38223;50.940;4.034;2023-03-12T17:45:09;13.10;99.90
52267;DHT22;38223;50.940;4.034;2023-03-12T17:47:37;13.10;99.90
52267;DHT22;38223;50.940;4.034;2023-03-12T17:50:08;13.00;99.90
52267;DHT22;38223;50.940;4.034;2023-03-12T17:52:35;13.10;99.90
52267;DHT22;38223;50.940;4.034;2023-03-12T17:55:04;13.00;99.90
52267;DHT22;38223;50.940;4.034;2023-03-12T17:57:34;12.90;99.90
52267;DHT22;38223;50.940;4.034;2023-03-12T18:00:02;12.70;99.90
52267;DHT22;38223;50.940;4.034;2023-03-12T18:02:31;12.80;99.90
52267;DHT22;38223;50.940;4.034;2023-03-12T18:04:59;13.00;99.90
52267;DHT22;38223;50.940;4.034;2023-03-12T18:07:27;13.10;99.90
52267;DHT22;38223;50.940;4.034;2023-03-12T18:10:02;13.10;99.90
52267;DHT22;38223;50.940;4.034;2023-03-12T18:12:31;13.00;99.90
52267;DHT22;38223;50.940;4.034;2023-03-12T18:14:59;13.10;99.90